Time;durP1;ratioP1;P1;durP2;ratioP2;P2;SDS_P1;SDS_P2;PMS_P1;PMS_P2;Temp;Humidity;BMP_temperature;BMP_pressure;BME280_temperature;BME280_humidity;BME280_pressure;Samples;Min_cycle;Max_cycle;Signal;HPM_P1;HPM_P2
2021/09/06 00:00:18;;;;;;;26.50;15.07;;;;;;;15.79;75.56;102270.47;5074100;28;20318;-40
2021/09/06 00:02:44;;;;;;;25.40;14.85;;;;;;;15.76;75.52;102268.94;5061002;28;20546;-39
2021/09/06 00:05:11;;;;;;;26.35;15.80;;;;;;;15.73;75.66;102265.78;5055287;28;20098;-39
2021/09/06 00:07:37;;;;;;;25.33;16.02;;;;;;;15.68;76.20;102265.44;5049147;28;20375;-39
2021/09/06 00:10:18;;;;;;;26.63;15.85;;;;;;;15.67;76.05;102269.19;5075218;28;20105;-40
2021/09/06 00:12:43;;;;;;;24.65;15.88;;;;;;;15.62;76.24;102267.00;5073088;28;20043;-39
2021/09/06 00:15:09;;;;;;;24.65;15.52;;;;;;;15.63;76.17;102271.41;5074616;28;20024;-41
2021/09/06 00:17:34;;;;;;;32.42;16.20;;;;;;;15.65;76.07;102268.50;5073213;28;20063;-40
2021/09/06 00:20:00;;;;;;;25.27;16.15;;;;;;;15.61;76.23;102268.00;5075012;28;20056;-38
2021/09/06 00:22:25;;;;;;;28.20;17.27;;;;;;;15.59;76.05;102265.50;5074431;28;20090;-39
2021/09/06 00:24:50;;;;;;;27.45;16.65;;;;;;;15.57;76.17;102272.97;5069463;28;20033;-39
2021/09/06 00:27:16;;;;;;;27.85;15.73;;;;;;;15.55;76.31;102269.56;5064493;28;20029;-39
2021/09/06 00:29:41;;;;;;;26.42;16.33;;;;;;;15.58;76.30;102274.63;5054849;28;20120;-39
2021/09/06 00:32:06;;;;;;;27.63;16.05;;;;;;;15.56;76.43;102271.28;5062449;28;20029;-41
2021/09/06 00:34:32;;;;;;;23.40;16.02;;;;;;;15.53;76.23;102271.66;5074476;28;20056;-39
2021/09/06 00:36:57;;;;;;;25.08;16.15;;;;;;;15.52;76.40;102271.81;5056950;28;20056;-39
2021/09/06 00:39:22;;;;;;;25.40;15.73;;;;;;;15.50;76.49;102266.56;5056364;28;20041;-39
2021/09/06 00:41:48;;;;;;;23.52;15.65;;;;;;;15.48;76.83;102276.78;5065969;28;20056;-39
2021/09/06 00:44:13;;;;;;;27.63;16.50;;;;;;;15.45;76.79;102273.56;5075975;28;20170;-40
2021/09/06 00:46:44;;;;;;;27.60;16.77;;;;;;;15.42;77.17;102274.75;5071526;28;20151;-39
2021/09/06 00:49:09;;;;;;;26.60;16.20;;;;;;;15.42;77.25;102269.31;5056219;28;20040;-39
2021/09/06 00:51:35;;;;;;;24.67;15.88;;;;;;;15.42;77.36;102263.91;5036207;28;20383;-39
2021/09/06 00:54:00;;;;;;;28.08;16.40;;;;;;;15.44;77.43;102263.75;5045474;28;20021;-38
2021/09/06 00:56:26;;;;;;;30.27;17.75;;;;;;;15.39;77.84;102258.84;5073481;28;20153;-39
2021/09/06 00:58:51;;;;;;;31.80;17.95;;;;;;;15.32;77.63;102271.41;5074380;28;20032;-39
2021/09/06 01:01:16;;;;;;;26.63;17.00;;;;;;;15.28;77.89;102273.66;5061645;28;20033;-39
2021/09/06 01:03:42;;;;;;;29.63;17.55;;;;;;;15.27;77.71;102274.69;5059970;28;20032;-39
2021/09/06 01:06:07;;;;;;;32.35;19.33;;;;;;;15.28;78.08;102270.94;5073517;28;20021;-39
2021/09/06 01:08:32;;;;;;;31.35;19.30;;;;;;;15.32;77.99;102274.13;5059925;28;20539;-39
2021/09/06 01:10:58;;;;;;;29.50;18.80;;;;;;;15.34;77.78;102277.53;5061853;28;20415;-40
2021/09/06 01:13:24;;;;;;;32.45;18.75;;;;;;;15.34;78.15;102269.38;5036377;28;20025;-39
2021/09/06 01:15:49;;;;;;;31.17;18.52;;;;;;;15.32;77.92;102268.72;5058836;28;20029;-39
2021/09/06 01:18:14;;;;;;;30.30;18.25;;;;;;;15.29;78.14;102269.06;5072593;28;20444;-39
2021/09/06 01:20:39;;;;;;;30.13;18.55;;;;;;;15.25;78.24;102262.31;5064298;28;20441;-39
2021/09/06 01:23:08;;;;;;;27.90;18.23;;;;;;;15.21;78.07;102272.66;5053834;28;20357;-39
2021/09/06 01:25:33;;;;;;;29.13;18.33;;;;;;;15.15;78.13;102266.09;5069379;28;20098;-40
2021/09/06 01:27:58;;;;;;;28.42;18.45;;;;;;;15.13;78.18;102260.00;5064384;28;20041;-40
2021/09/06 01:30:24;;;;;;;32.88;19.40;;;;;;;15.11;78.54;102267.47;5070643;28;20038;-40
2021/09/06 01:32:49;;;;;;;29.77;19.23;;;;;;;15.10;78.21;102267.66;5053424;28;20040;-38
2021/09/06 01:35:14;;;;;;;31.92;19.27;;;;;;;15.08;78.39;102267.81;5061044;28;20024;-39
2021/09/06 01:37:40;;;;;;;33.28;20.35;;;;;;;15.07;78.73;102265.28;5065223;28;20375;-39
2021/09/06 01:40:06;;;;;;;38.65;20.15;;;;;;;15.04;78.80;102268.38;5072375;28;20048;-39
2021/09/06 01:42:31;;;;;;;35.00;19.20;;;;;;;15.03;78.74;102267.50;5073370;28;20047;-38
2021/09/06 01:44:57;;;;;;;30.67;19.17;;;;;;;15.02;78.68;102273.94;5055094;28;20127;-40
2021/09/06 01:47:22;;;;;;;36.47;20.08;;;;;;;14.99;78.80;102268.88;5029597;28;20037;-40
2021/09/06 01:49:47;;;;;;;39.72;21.38;;;;;;;14.95;78.79;102272.97;5054547;28;20025;-40
2021/09/06 01:52:12;;;;;;;34.20;19.73;;;;;;;14.98;79.06;102275.34;5052867;28;20105;-39
2021/09/06 01:54:38;;;;;;;33.05;20.95;;;;;;;14.94;79.37;102276.69;5052814;28;20400;-39
2021/09/06 01:57:03;;;;;;;32.67;20.27;;;;;;;14.88;79.57;102280.97;5052952;28;20033;-39
2021/09/06 01:59:28;;;;;;;33.97;20.00;;;;;;;14.84;79.58;102271.47;5052928;28;20234;-39
2021/09/06 02:01:54;;;;;;;31.67;20.02;;;;;;;14.83;79.89;102277.09;5055307;28;20086;-40
2021/09/06 02:04:19;;;;;;;33.95;21.05;;;;;;;14.82;79.73;102278.94;5052457;28;20033;-39
2021/09/06 02:06:44;;;;;;;34.10;21.02;;;;;;;14.80;80.04;102280.16;5057224;28;20075;-39
2021/09/06 02:09:10;;;;;;;37.60;21.02;;;;;;;14.78;80.01;102276.78;5072773;28;20047;-39
2021/09/06 02:11:35;;;;;;;40.33;22.13;;;;;;;14.74;80.41;102275.41;5072001;28;20444;-39
2021/09/06 02:14:01;;;;;;;33.33;20.42;;;;;;;14.73;79.94;102280.00;5072717;28;20385;-39
2021/09/06 02:16:26;;;;;;;37.20;22.02;;;;;;;14.71;80.39;102277.44;5052521;28;20064;-40
2021/09/06 02:18:51;;;;;;;31.17;21.00;;;;;;;14.74;80.25;102275.41;5052753;28;20028;-40
2021/09/06 02:21:17;;;;;;;34.28;20.90;;;;;;;14.76;79.90;102278.81;5052533;28;20063;-40
2021/09/06 02:23:42;;;;;;;34.05;21.30;;;;;;;14.79;80.16;102283.88;5057094;28;20032;-40
2021/09/06 02:26:07;;;;;;;34.38;20.27;;;;;;;14.81;79.95;102282.69;5068992;28;20094;-40
2021/09/06 02:28:33;;;;;;;38.50;22.48;;;;;;;14.79;79.69;102283.88;5052415;28;20040;-39
2021/09/06 02:30:58;;;;;;;33.65;20.65;;;;;;;14.78;79.94;102284.91;5052383;28;20358;-39
2021/09/06 02:33:23;;;;;;;37.90;22.52;;;;;;;14.74;80.16;102281.69;5052707;28;20184;-40
2021/09/06 02:35:49;;;;;;;37.75;20.92;;;;;;;14.70;80.06;102277.63;5052628;28;20021;-39
2021/09/06 02:38:14;;;;;;;37.35;21.20;;;;;;;14.62;80.31;102277.66;5053112;28;20373;-40
2021/09/06 02:40:40;;;;;;;37.50;20.67;;;;;;;14.59;80.61;102268.03;5060153;28;20052;-39
2021/09/06 02:43:05;;;;;;;37.70;21.20;;;;;;;14.59;80.38;102273.44;5067584;28;20112;-39
2021/09/06 02:45:30;;;;;;;36.78;21.17;;;;;;;14.58;80.12;102279.84;5052496;28;20033;-39
2021/09/06 02:47:56;;;;;;;34.70;21.25;;;;;;;14.58;80.28;102277.16;5067275;28;20078;-39
2021/09/06 02:50:21;;;;;;;31.75;20.85;;;;;;;14.58;80.20;102277.16;5072236;28;20020;-39
2021/09/06 02:52:47;;;;;;;37.33;20.17;;;;;;;14.61;80.18;102281.38;5068888;28;20029;-38
2021/09/06 02:55:12;;;;;;;38.50;21.05;;;;;;;14.62;80.05;102280.38;5052175;28;20032;-39
2021/09/06 02:57:37;;;;;;;41.42;22.50;;;;;;;14.60;80.33;102279.69;5067420;28;20373;-39
2021/09/06 03:00:03;;;;;;;37.10;21.10;;;;;;;14.57;80.41;102283.59;5072241;28;20028;-40
2021/09/06 03:02:29;;;;;;;37.10;21.90;;;;;;;14.56;80.17;102289.19;5058637;28;20037;-39
2021/09/06 03:04:54;;;;;;;38.08;20.73;;;;;;;14.50;80.60;102283.41;5052642;28;20441;-40
2021/09/06 03:07:20;;;;;;;38.65;22.63;;;;;;;14.48;80.75;102290.88;5064889;28;20114;-39
2021/09/06 03:09:45;;;;;;;39.10;21.77;;;;;;;14.43;80.90;102285.13;5072118;28;20479;-38
2021/09/06 03:12:10;;;;;;;33.60;21.25;;;;;;;14.46;80.69;102275.81;5071947;28;20539;-39
2021/09/06 03:14:36;;;;;;;35.92;21.10;;;;;;;14.44;80.61;102275.97;5074168;28;20413;-40
2021/09/06 03:17:01;;;;;;;37.85;20.90;;;;;;;14.44;80.61;102280.56;5066001;28;20029;-39
2021/09/06 03:19:26;;;;;;;38.92;22.45;;;;;;;14.41;80.66;102279.03;5072894;28;20032;-39
2021/09/06 03:21:52;;;;;;;39.25;22.77;;;;;;;14.40;80.79;102279.19;5056056;28;20392;-40
2021/09/06 03:24:17;;;;;;;38.33;21.65;;;;;;;14.39;80.68;102275.63;5055968;28;20089;-39
2021/09/06 03:26:42;;;;;;;37.10;21.55;;;;;;;14.35;80.51;102273.44;5062781;28;20047;-39
2021/09/06 03:29:08;;;;;;;36.10;20.50;;;;;;;14.31;80.99;102274.81;5056122;28;20131;-40
2021/09/06 03:31:33;;;;;;;38.85;22.33;;;;;;;14.28;81.04;102274.13;5056051;28;20028;-40
2021/09/06 03:33:59;;;;;;;34.35;21.33;;;;;;;14.27;80.77;102268.91;5055839;28;20025;-40
2021/09/06 03:36:25;;;;;;;37.22;22.35;;;;;;;14.22;81.00;102272.13;5067369;28;20039;-40
2021/09/06 03:38:51;;;;;;;38.42;21.20;;;;;;;14.20;81.06;102267.91;5058825;28;20033;-40
2021/09/06 03:41:17;;;;;;;39.97;22.48;;;;;;;14.17;80.45;102270.94;5055745;28;20049;-39
2021/09/06 03:43:43;;;;;;;33.53;21.02;;;;;;;14.15;80.62;102265.69;5063452;28;20101;-39
2021/09/06 03:46:08;;;;;;;32.60;20.75;;;;;;;14.15;80.53;102275.69;5075049;28;20028;-40
2021/09/06 03:48:33;;;;;;;36.72;20.90;;;;;;;14.13;80.89;102272.28;5066613;28;20027;-39
2021/09/06 03:50:59;;;;;;;35.53;21.45;;;;;;;14.08;80.78;102270.09;5073980;28;20024;-39
2021/09/06 03:53:24;;;;;;;33.28;20.75;;;;;;;14.07;80.78;102273.81;5075425;28;20025;-39
2021/09/06 03:55:49;;;;;;;36.58;21.10;;;;;;;14.07;80.86;102281.09;5074489;28;20112;-39
2021/09/06 03:58:14;;;;;;;33.47;19.92;;;;;;;14.09;80.70;102277.22;5056098;28;20119;-39
2021/09/06 04:00:40;;;;;;;36.40;20.42;;;;;;;14.09;80.57;102271.81;5058534;28;20529;-39
2021/09/06 04:03:05;;;;;;;33.75;21.23;;;;;;;14.09;80.59;102271.81;5067066;28;20520;-39
2021/09/06 04:05:30;;;;;;;33.10;20.75;;;;;;;14.05;80.60;102273.13;5055334;28;20404;-39
2021/09/06 04:07:56;;;;;;;37.03;21.70;;;;;;;14.02;80.86;102270.78;5056195;28;20446;-40
2021/09/06 04:10:21;;;;;;;36.95;21.00;;;;;;;14.02;80.89;102270.78;5055894;28;20017;-38
2021/09/06 04:12:46;;;;;;;34.90;20.35;;;;;;;14.03;80.91;102272.47;5074815;28;20134;-39
2021/09/06 04:15:12;;;;;;;32.15;19.30;;;;;;;14.02;80.72;102268.91;5074900;28;20037;-38
2021/09/06 04:17:38;;;;;;;31.50;19.83;;;;;;;14.00;80.54;102272.81;5072498;28;20060;-39
2021/09/06 04:20:04;;;;;;;35.50;20.45;;;;;;;13.97;80.71;102275.84;5074913;28;20523;-38
2021/09/06 04:22:30;;;;;;;31.90;20.05;;;;;;;13.98;80.49;102274.81;5074883;28;20399;-39
2021/09/06 04:24:55;;;;;;;35.30;20.63;;;;;;;13.93;80.37;102288.91;5074341;28;20086;-40
2021/09/06 04:27:21;;;;;;;34.75;20.50;;;;;;;13.88;80.57;102279.59;5052301;28;20036;-40
2021/09/06 04:29:46;;;;;;;39.72;21.98;;;;;;;13.83;81.22;102289.03;5074461;28;20052;-39
2021/09/06 04:32:11;;;;;;;36.83;20.88;;;;;;;13.84;80.85;102289.88;5074406;28;20031;-40
2021/09/06 04:34:36;;;;;;;36.67;21.00;;;;;;;13.83;81.12;102289.03;5055085;28;20044;-39
2021/09/06 04:37:03;;;;;;;37.20;22.08;;;;;;;13.80;80.89;102292.09;5068925;28;20035;-40
2021/09/06 04:39:29;;;;;;;35.85;19.95;;;;;;;13.81;81.15;102285.66;5073865;28;20033;-40
2021/09/06 04:41:54;;;;;;;37.20;20.05;;;;;;;13.80;80.65;102300.22;5073866;28;20140;-41
2021/09/06 04:44:19;;;;;;;40.50;21.58;;;;;;;13.78;80.78;102291.41;5072436;28;20040;-40
2021/09/06 04:46:45;;;;;;;42.58;21.67;;;;;;;13.75;81.06;102297.16;5072157;28;20035;-39
2021/09/06 04:49:10;;;;;;;36.78;21.15;;;;;;;13.76;80.83;102309.66;5074183;28;20452;-39
2021/09/06 04:51:35;;;;;;;34.85;19.48;;;;;;;13.75;80.78;102299.88;5068635;28;20484;-40
2021/09/06 04:54:01;;;;;;;33.75;19.55;;;;;;;13.78;80.69;102310.34;5057517;28;20025;-41
2021/09/06 04:56:26;;;;;;;38.20;20.00;;;;;;;13.77;80.92;102302.38;5053723;28;20021;-40
2021/09/06 04:58:52;;;;;;;34.80;19.80;;;;;;;13.77;81.03;102305.97;5053607;28;20442;-39
2021/09/06 05:01:17;;;;;;;38.63;20.38;;;;;;;13.80;81.12;102293.97;5056363;28;20069;-39
2021/09/06 05:03:43;;;;;;;35.55;19.92;;;;;;;13.80;81.08;102305.63;5052450;28;20040;-40
2021/09/06 05:06:08;;;;;;;41.88;21.58;;;;;;;13.82;81.44;102305.44;5073420;28;20024;-40
2021/09/06 05:08:33;;;;;;;35.53;21.63;;;;;;;13.80;81.27;102302.91;5073544;28;20098;-40
2021/09/06 05:10:59;;;;;;;36.22;21.90;;;;;;;13.78;81.78;102307.66;5065720;28;20028;-40
2021/09/06 05:13:25;;;;;;;39.05;22.13;;;;;;;13.80;81.66;102305.63;5062223;28;20030;-40
2021/09/06 05:15:50;;;;;;;35.38;21.23;;;;;;;13.82;81.38;102309.00;5071797;28;20101;-40
2021/09/06 05:18:15;;;;;;;37.00;22.05;;;;;;;13.86;81.51;102312.22;5068510;28;20032;-40
2021/09/06 05:20:41;;;;;;;34.70;21.52;;;;;;;13.89;81.88;102316.44;5059038;28;20341;-39
2021/09/06 05:23:07;;;;;;;39.33;22.17;;;;;;;13.90;81.69;102318.13;5063198;28;20106;-40
2021/09/06 05:25:33;;;;;;;39.42;22.58;;;;;;;13.92;81.85;102313.41;5071997;28;20484;-40
2021/09/06 05:27:58;;;;;;;36.17;21.40;;;;;;;13.97;82.12;102317.28;5059762;28;20033;-40
2021/09/06 05:30:24;;;;;;;46.40;23.13;;;;;;;14.03;81.68;102322.06;5063274;28;20077;-40
2021/09/06 05:32:49;;;;;;;40.70;22.92;;;;;;;14.11;81.71;102320.34;5061554;28;20055;-39
2021/09/06 05:35:15;;;;;;;39.45;22.38;;;;;;;14.19;81.57;102323.91;5064078;28;20025;-39
2021/09/06 05:37:40;;;;;;;36.00;22.38;;;;;;;14.42;81.29;102325.91;5059265;28;20392;-39
2021/09/06 05:40:06;;;;;;;34.42;21.33;;;;;;;14.75;79.98;102332.16;5060258;28;20393;-40
2021/09/06 05:42:31;;;;;;;41.08;22.52;;;;;;;15.27;78.18;102330.78;5060274;28;20159;-40
2021/09/06 05:44:57;;;;;;;35.47;20.33;;;;;;;15.83;76.01;102331.53;5071507;28;20032;-40
2021/09/06 05:47:22;;;;;;;34.28;19.85;;;;;;;16.49;73.85;102326.38;5060675;28;20136;-39
2021/09/06 05:49:47;;;;;;;33.05;18.83;;;;;;;17.05;71.88;102325.97;5060742;28;20044;-40
2021/09/06 05:52:13;;;;;;;32.92;18.33;;;;;;;17.54;70.01;102337.06;5060606;28;20129;-40
2021/09/06 05:54:38;;;;;;;31.58;19.75;;;;;;;17.72;68.35;102341.22;5069862;28;20446;-40
2021/09/06 05:57:03;;;;;;;33.05;20.23;;;;;;;18.30;67.05;102342.03;5065592;28;20370;-39
2021/09/06 05:59:29;;;;;;;32.53;19.45;;;;;;;18.64;65.45;102340.41;5070021;28;20051;-39
2021/09/06 06:01:54;;;;;;;31.20;19.13;;;;;;;18.53;65.96;102339.06;5052077;28;20033;-40
2021/09/06 06:04:20;;;;;;;28.70;18.02;;;;;;;18.76;65.45;102343.47;5051828;28;20106;-38
2021/09/06 06:06:45;;;;;;;30.00;18.88;;;;;;;18.81;65.25;102354.63;5063613;28;20079;-40
2021/09/06 06:09:10;;;;;;;27.88;19.00;;;;;;;18.98;64.43;102353.22;5061747;28;20515;-40
2021/09/06 06:11:40;;;;;;;28.58;18.70;;;;;;;18.75;65.02;102349.97;5062781;28;20020;-41
2021/09/06 06:14:06;;;;;;;30.73;19.27;;;;;;;18.41;65.65;102360.59;5070914;28;20032;-40
2021/09/06 06:16:31;;;;;;;28.95;19.60;;;;;;;18.08;66.95;102363.00;5062003;28;20028;-40
2021/09/06 06:18:57;;;;;;;34.35;20.20;;;;;;;17.78;67.79;102364.97;5058060;28;20016;-39
2021/09/06 06:21:22;;;;;;;31.30;18.67;;;;;;;17.63;68.35;102354.13;5065992;28;20020;-40
2021/09/06 06:23:48;;;;;;;36.55;19.45;;;;;;;17.34;69.63;102363.19;5037115;28;20122;-40
2021/09/06 06:26:13;;;;;;;30.73;20.05;;;;;;;17.17;70.19;102357.13;5062031;28;20028;-40
2021/09/06 06:28:38;;;;;;;28.80;17.73;;;;;;;17.06;70.68;102360.28;5061611;28;20127;-40
2021/09/06 06:31:04;;;;;;;25.27;17.67;;;;;;;16.97;71.20;102372.31;5056644;28;20377;-41
2021/09/06 06:33:30;;;;;;;28.77;19.13;;;;;;;16.87;71.41;102367.97;5050600;28;20468;-40
2021/09/06 06:35:57;;;;;;;32.00;18.83;;;;;;;16.75;72.29;102364.00;5057777;28;20052;-40
2021/09/06 06:38:23;;;;;;;28.60;17.60;;;;;;;16.75;72.70;102374.88;5042604;28;20059;-40
2021/09/06 06:40:48;;;;;;;28.77;18.38;;;;;;;16.80;72.62;102377.94;5060222;28;20135;-40
2021/09/06 06:43:13;;;;;;;28.70;19.20;;;;;;;16.98;72.37;102382.16;5032847;28;20092;-40
2021/09/06 06:45:39;;;;;;;30.15;19.60;;;;;;;17.06;72.24;102377.47;5060131;28;20052;-39
2021/09/06 06:48:04;;;;;;;31.23;18.88;;;;;;;17.53;71.31;102378.06;5064891;28;20536;-39
2021/09/06 06:50:29;;;;;;;26.27;18.45;;;;;;;18.34;68.56;102375.19;5058391;28;20499;-40
2021/09/06 06:52:55;;;;;;;33.65;19.17;;;;;;;19.28;65.97;102377.56;5032804;28;20492;-39
2021/09/06 06:55:20;;;;;;;32.65;18.83;;;;;;;19.97;63.29;102373.00;5050353;28;20135;-40
2021/09/06 06:57:46;;;;;;;26.60;17.77;;;;;;;20.82;60.99;102374.91;5055642;28;20021;-40
2021/09/06 07:00:11;;;;;;;33.45;18.20;;;;;;;21.56;57.75;102381.03;5063318;28;20409;-40
2021/09/06 07:02:37;;;;;;;31.08;17.05;;;;;;;22.58;56.29;102381.84;5052415;28;20086;-41
2021/09/06 07:05:02;;;;;;;34.10;18.27;;;;;;;22.86;54.31;102385.19;5044319;28;20471;-40
2021/09/06 07:07:27;;;;;;;33.25;18.95;;;;;;;23.29;53.43;102382.41;5064072;28;20520;-39
2021/09/06 07:09:53;;;;;;;34.08;18.35;;;;;;;23.14;52.92;102392.94;5066653;28;20115;-40
2021/09/06 07:12:18;;;;;;;26.50;18.00;;;;;;;23.56;52.12;102390.31;5057582;28;20385;-40
2021/09/06 07:14:43;;;;;;;34.03;17.67;;;;;;;23.35;51.90;102388.91;5034132;28;20091;-40
2021/09/06 07:17:09;;;;;;;27.15;18.08;;;;;;;23.33;52.90;102391.88;5062364;28;20075;-40
2021/09/06 07:19:34;;;;;;;28.40;17.13;;;;;;;23.43;53.34;102391.31;5049777;28;20483;-39
2021/09/06 07:21:59;;;;;;;27.90;17.83;;;;;;;24.99;49.69;102399.56;5065116;28;20512;-39
2021/09/06 07:24:25;;;;;;;20.35;16.20;;;;;;;25.92;46.97;102408.69;5062110;28;20033;-40
2021/09/06 07:26:50;;;;;;;24.55;15.90;;;;;;;25.99;46.84;102398.34;5051151;28;20116;-41
2021/09/06 07:29:15;;;;;;;25.55;17.83;;;;;;;25.36;47.09;102393.78;5050921;28;20029;-41
2021/09/06 07:31:41;;;;;;;25.35;17.70;;;;;;;25.32;48.39;102403.59;5050896;28;20059;-40
2021/09/06 07:34:06;;;;;;;24.45;17.83;;;;;;;25.36;47.45;102402.03;5050671;28;20056;-40
2021/09/06 07:36:34;;;;;;;26.65;16.73;;;;;;;25.29;48.59;102398.56;5055165;28;20400;-41
2021/09/06 07:39:00;;;;;;;21.60;16.73;;;;;;;25.07;48.58;102406.63;5057280;28;20039;-40
2021/09/06 07:41:26;;;;;;;22.40;16.35;;;;;;;25.78;47.84;102407.28;5068818;28;20052;-41
2021/09/06 07:43:52;;;;;;;25.30;16.92;;;;;;;25.42;48.88;102408.50;5059836;28;20104;-40
2021/09/06 07:46:17;;;;;;;25.15;17.58;;;;;;;25.15;48.95;102409.84;5054836;28;20471;-40
2021/09/06 07:48:43;;;;;;;24.60;15.98;;;;;;;25.95;46.38;102419.22;5057405;28;20125;-39
2021/09/06 07:51:08;;;;;;;25.30;16.63;;;;;;;26.04;46.49;102412.22;5060376;28;20032;-40
2021/09/06 07:53:33;;;;;;;31.60;17.25;;;;;;;25.78;47.53;102423.84;5070339;28;20123;-40
2021/09/06 07:55:59;;;;;;;30.85;18.23;;;;;;;24.74;50.39;102428.16;5066375;28;20040;-40
2021/09/06 07:58:25;;;;;;;38.67;19.63;;;;;;;24.30;51.67;102424.84;5068580;28;20473;-40
2021/09/06 08:00:50;;;;;;;41.00;19.85;;;;;;;23.90;52.08;102430.06;5056130;28;20068;-39
2021/09/06 08:03:15;;;;;;;32.97;17.77;;;;;;;24.67;51.52;102432.97;5080202;28;20381;-39
2021/09/06 08:05:41;;;;;;;31.13;18.90;;;;;;;24.60;51.08;102434.16;5075154;28;20475;-40
2021/09/06 08:08:06;;;;;;;34.80;18.30;;;;;;;25.53;49.17;102433.25;5057213;28;20032;-40
2021/09/06 08:10:32;;;;;;;26.70;18.50;;;;;;;26.54;46.54;102443.78;5054937;28;20047;-39
2021/09/06 08:12:58;;;;;;;27.33;17.88;;;;;;;27.25;45.39;102449.59;5062322;28;20040;-41
2021/09/06 08:15:25;;;;;;;27.88;18.42;;;;;;;27.30;43.99;102451.56;5064924;28;20035;-40
2021/09/06 08:17:52;;;;;;;28.38;17.88;;;;;;;27.47;44.85;102459.81;5059760;28;20074;-46
2021/09/06 08:20:18;;;;;;;27.27;17.88;;;;;;;27.35;44.44;102457.16;5055498;28;20488;-40
2021/09/06 08:22:44;;;;;;;29.30;17.70;;;;;;;28.47;42.09;102471.50;5055199;28;20119;-40
2021/09/06 08:25:10;;;;;;;22.67;16.40;;;;;;;29.15;41.24;102468.13;5055968;28;20550;-39
2021/09/06 08:27:36;;;;;;;31.60;17.75;;;;;;;28.67;41.07;102466.13;5055156;28;20476;-41
2021/09/06 08:30:03;;;;;;;23.97;16.33;;;;;;;28.63;41.64;102464.16;5057621;28;20029;-40
2021/09/06 08:32:28;;;;;;;;;;;;;;;29.32;40.27;102463.25;5056029;28;20044;-38
2021/09/06 08:34:54;;;;;;;27.83;17.80;;;;;;;29.17;39.80;102469.53;5069532;28;19916;-40
2021/09/06 08:37:20;;;;;;;25.53;18.27;;;;;;;28.62;41.07;102468.00;5068334;28;20082;-41
2021/09/06 08:39:46;;;;;;;27.87;17.13;;;;;;;29.20;40.45;102479.25;5054595;28;20029;-40
2021/09/06 08:42:11;;;;;;;28.33;18.10;;;;;;;29.01;40.75;102464.97;5054440;28;20024;-41
2021/09/06 08:44:36;;;;;;;18.60;14.10;;;;;;;29.49;38.98;102475.00;5062416;28;20547;-38
2021/09/06 08:47:03;;;;;;;25.27;14.50;;;;;;;29.71;37.75;102465.66;5068395;28;20024;-40
2021/09/06 08:49:28;;;;;;;18.90;13.97;;;;;;;30.20;37.37;102470.78;5054014;28;20380;-40
2021/09/06 08:51:54;;;;;;;25.50;16.57;;;;;;;29.70;38.13;102467.63;5056309;28;20294;-41
2021/09/06 08:54:19;;;;;;;24.50;15.23;;;;;;;29.37;37.93;102468.81;5060187;28;20112;-41
2021/09/06 08:56:46;;;;;;;32.70;14.90;;;;;;;29.63;38.56;102468.94;5053785;28;20033;-41
2021/09/06 08:59:12;;;;;;;18.92;13.73;;;;;;;30.25;36.08;102467.22;5064055;28;20044;-41
2021/09/06 09:01:45;;;;;;;19.60;13.37;;;;;;;30.88;35.47;102469.75;5063607;28;20033;-41
2021/09/06 09:04:20;;;;;;;18.70;13.23;;;;;;;30.22;35.41;102473.28;5060069;28;20059;-41
2021/09/06 09:06:52;;;;;;;20.90;13.53;;;;;;;30.86;34.76;102470.03;5063104;28;20033;-39
2021/09/06 09:09:24;;;;;;;16.35;10.90;;;;;;;31.18;33.37;102475.25;5059269;28;20043;-40
2021/09/06 09:12:10;;;;;;;18.27;13.02;;;;;;;30.75;34.57;102466.38;5054491;28;20052;-40
2021/09/06 09:14:41;;;;;;;17.70;12.48;;;;;;;30.83;34.84;102470.56;5072903;28;20032;-41
2021/09/06 09:17:07;;;;;;;16.90;11.70;;;;;;;30.17;35.93;102472.16;5067048;28;20024;-41
2021/09/06 09:19:33;;;;;;;16.30;12.53;;;;;;;29.66;35.61;102463.69;5054640;28;20037;-41
2021/09/06 09:22:03;;;;;;;17.77;12.18;;;;;;;29.53;34.96;102472.50;5071460;28;20062;-40
2021/09/06 09:24:29;;;;;;;12.93;9.90;;;;;;;29.54;34.56;102468.59;5070842;28;20518;-41
2021/09/06 09:27:00;;;;;;;17.70;10.43;;;;;;;30.01;34.75;102462.13;5055297;28;20060;-41
2021/09/06 09:29:27;;;;;;;14.40;10.63;;;;;;;29.43;35.38;102464.97;5050728;28;20028;-41
2021/09/06 09:31:54;;;;;;;19.10;12.40;;;;;;;29.41;36.81;102466.31;5052829;28;20025;-41
2021/09/06 09:34:20;;;;;;;21.75;11.52;;;;;;;29.68;34.73;102466.22;5056226;28;20048;-41
2021/09/06 09:36:46;;;;;;;9.40;8.23;;;;;;;30.67;32.70;102458.59;5060096;28;20477;-40
2021/09/06 09:39:13;;;;;;;18.23;10.55;;;;;;;30.32;32.90;102463.06;5052952;28;20400;-40
2021/09/06 09:41:40;;;;;;;17.30;10.20;;;;;;;29.49;34.39;102461.13;5039201;28;20476;-41
2021/09/06 09:44:06;;;;;;;16.73;10.40;;;;;;;27.68;36.10;102464.50;5067280;28;20024;-40
2021/09/06 09:46:32;;;;;;;13.95;9.85;;;;;;;27.58;37.19;102464.38;5062777;28;20029;-40
2021/09/06 09:49:08;;;;;;;17.33;9.73;;;;;;;27.95;36.51;102463.75;5064744;28;20499;-41
2021/09/06 09:51:33;;;;;;;15.55;10.55;;;;;;;27.68;37.82;102460.91;5058725;28;20045;-40
2021/09/06 09:54:01;;;;;;;18.92;12.00;;;;;;;27.40;38.33;102459.16;5039478;28;20020;-40
2021/09/06 09:56:27;;;;;;;19.13;13.05;;;;;;;27.13;39.56;102457.09;5072356;28;20390;-40
2021/09/06 09:58:52;;;;;;;18.33;10.95;;;;;;;27.08;40.71;102451.50;5073646;28;20036;-40
2021/09/06 10:01:18;;;;;;;20.83;12.98;;;;;;;27.31;41.09;102448.56;5062729;28;20032;-40
2021/09/06 10:03:44;;;;;;;20.67;14.57;;;;;;;26.92;42.08;102450.44;5053674;28;20350;-39
2021/09/06 10:06:09;;;;;;;19.20;13.85;;;;;;;26.83;43.32;102439.00;5053462;28;20029;-40
2021/09/06 10:08:35;;;;;;;18.58;13.57;;;;;;;26.39;43.91;102441.56;5035179;28;20094;-40
2021/09/06 10:11:11;;;;;;;24.95;13.15;;;;;;;26.20;44.05;102438.19;5035757;28;20025;-39
2021/09/06 10:13:40;;;;;;;20.10;12.80;;;;;;;26.05;44.88;102440.66;5054627;28;20064;-40
2021/09/06 10:16:06;;;;;;;26.05;14.77;;;;;;;25.68;45.10;102446.53;5053614;28;20028;-39
2021/09/06 10:18:36;;;;;;;19.67;13.55;;;;;;;24.97;46.78;102454.03;5052459;28;20024;-39
2021/09/06 10:21:13;;;;;;;25.73;14.18;;;;;;;24.65;47.42;102448.03;5052861;28;20036;-40
2021/09/06 10:23:45;;;;;;;24.73;14.60;;;;;;;24.46;46.96;102447.25;5053219;28;20025;-39
2021/09/06 10:26:11;;;;;;;18.73;12.68;;;;;;;24.49;46.64;102449.56;5053750;28;20036;-41
2021/09/06 10:28:36;;;;;;;19.52;13.23;;;;;;;24.48;47.47;102453.38;5053248;28;20025;-39
2021/09/06 10:31:02;;;;;;;20.67;13.05;;;;;;;24.71;46.56;102447.06;5054023;28;20028;-40
2021/09/06 10:33:35;;;;;;;16.30;11.23;;;;;;;25.19;44.78;102449.59;5053332;28;20439;-39
2021/09/06 10:36:12;;;;;;;20.30;10.98;;;;;;;25.18;44.50;102452.63;5053102;28;20021;-39
2021/09/06 10:38:49;;;;;;;18.10;12.20;;;;;;;24.88;43.86;102452.69;5072558;28;20032;-39
2021/09/06 10:41:16;;;;;;;18.33;12.15;;;;;;;24.24;44.82;102449.69;5069283;28;20139;-40
2021/09/06 10:43:50;;;;;;;20.73;12.68;;;;;;;24.14;46.13;102447.50;5064316;28;20136;-40
2021/09/06 10:46:17;;;;;;;14.82;11.35;;;;;;;24.40;45.55;102445.44;5052715;28;20414;-39
2021/09/06 10:48:43;;;;;;;17.00;12.55;;;;;;;24.54;44.69;102441.44;5052464;28;20388;-40
2021/09/06 10:51:09;;;;;;;19.02;12.85;;;;;;;24.57;45.86;102435.44;5053676;28;20021;-40
2021/09/06 10:53:36;;;;;;;20.65;11.57;;;;;;;24.34;45.70;102438.13;5068835;28;20039;-39
2021/09/06 10:56:02;;;;;;;19.02;12.90;;;;;;;24.30;45.91;102434.97;5072627;28;20020;-40
2021/09/06 10:58:29;;;;;;;23.20;12.70;;;;;;;24.29;45.66;102438.81;5062535;28;20021;-39
2021/09/06 11:00:57;;;;;;;24.83;11.65;;;;;;;24.28;46.17;102435.25;5036263;28;20024;-40
2021/09/06 11:03:24;;;;;;;18.30;11.32;;;;;;;24.18;45.85;102436.88;5071991;28;20484;-40